Terminal Aerodrome Forecast
Issued by NWS Jackson, KY

Home | Current Version | Previous Version | Text Only | Print | Product List | Glossary On
Versions: 1 2 3 4 5 6 7 8 9 10 11 12 13 14 15 16
311
FTUS43 KJKL 261729
TAFJKL
TAF
KJKL 261729Z 2618/2718 VRB04KT P6SM VCTS SCT030CB BKN050
     FM270000 00000KT P6SM FEW035 SCT250
     FM270500 00000KT 4SM BR FEW007 SCT250
      TEMPO 2708/2712 2SM BR BKN005
     FM271300 VRB04KT P6SM SCT025=

USA.gov is the U.S. government's official web portal to all federal, state and local government web resources and services.